sensor_id;sensor_type;location;lat;lon;timestamp;temperature;humidity
8463;DHT22;4268;52.506;13.462;2022-10-17T00:01:25;13.80;99.90
8463;DHT22;4268;52.506;13.462;2022-10-17T00:03:51;13.80;99.90
8463;DHT22;4268;52.506;13.462;2022-10-17T00:06:16;13.80;99.90
8463;DHT22;4268;52.506;13.462;2022-10-17T00:08:42;13.80;99.90
8463;DHT22;4268;52.506;13.462;2022-10-17T00:11:18;13.80;99.90
8463;DHT22;4268;52.506;13.462;2022-10-17T00:13:45;13.80;99.90
8463;DHT22;4268;52.506;13.462;2022-10-17T00:16:10;13.80;99.90
8463;DHT22;4268;52.506;13.462;2022-10-17T00:18:36;13.80;99.90
8463;DHT22;4268;52.506;13.462;2022-10-17T00:21:02;13.80;99.90
8463;DHT22;4268;52.506;13.462;2022-10-17T00:23:27;13.80;99.90
8463;DHT22;4268;52.506;13.462;2022-10-17T00:25:59;13.90;99.90
8463;DHT22;4268;52.506;13.462;2022-10-17T00:28:25;13.80;99.90
8463;DHT22;4268;52.506;13.462;2022-10-17T00:30:55;13.90;99.90
8463;DHT22;4268;52.506;13.462;2022-10-17T00:33:21;13.90;99.90
8463;DHT22;4268;52.506;13.462;2022-10-17T00:35:46;13.80;99.90
8463;DHT22;4268;52.506;13.462;2022-10-17T00:38:12;13.80;99.90
8463;DHT22;4268;52.506;13.462;2022-10-17T00:40:37;13.80;99.90
8463;DHT22;4268;52.506;13.462;2022-10-17T00:43:03;13.80;99.90
8463;DHT22;4268;52.506;13.462;2022-10-17T00:45:30;13.80;99.90
8463;DHT22;4268;52.506;13.462;2022-10-17T00:48:02;13.80;99.90
8463;DHT22;4268;52.506;13.462;2022-10-17T00:50:28;13.80;99.90
8463;DHT22;4268;52.506;13.462;2022-10-17T00:52:57;13.80;99.90
8463;DHT22;4268;52.506;13.462;2022-10-17T00:55:29;13.80;99.90
8463;DHT22;4268;52.506;13.462;2022-10-17T00:57:57;13.80;99.90
8463;DHT22;4268;52.506;13.462;2022-10-17T01:00:24;13.80;99.90
8463;DHT22;4268;52.506;13.462;2022-10-17T01:02:50;13.80;99.90
8463;DHT22;4268;52.506;13.462;2022-10-17T01:05:16;13.90;99.90
8463;DHT22;4268;52.506;13.462;2022-10-17T01:07:43;13.90;99.90
8463;DHT22;4268;52.506;13.462;2022-10-17T01:10:10;13.80;99.90
8463;DHT22;4268;52.506;13.462;2022-10-17T01:12:54;13.90;99.90
8463;DHT22;4268;52.506;13.462;2022-10-17T01:24:40;13.90;99.90
8463;DHT22;4268;52.506;13.462;2022-10-17T01:30:14;13.90;99.90
8463;DHT22;4268;52.506;13.462;2022-10-17T01:33:08;13.90;99.90
8463;DHT22;4268;52.506;13.462;2022-10-17T01:38:35;13.90;99.90
8463;DHT22;4268;52.506;13.462;2022-10-17T01:41:13;13.80;99.90
8463;DHT22;4268;52.506;13.462;2022-10-17T01:44:02;13.80;99.90
8463;DHT22;4268;52.506;13.462;2022-10-17T01:46:37;13.80;99.90
8463;DHT22;4268;52.506;13.462;2022-10-17T01:49:06;13.70;99.90
8463;DHT22;4268;52.506;13.462;2022-10-17T01:51:45;13.70;99.90
8463;DHT22;4268;52.506;13.462;2022-10-17T01:54:17;13.70;99.90
8463;DHT22;4268;52.506;13.462;2022-10-17T01:56:45;13.70;99.90
8463;DHT22;4268;52.506;13.462;2022-10-17T01:59:22;13.60;99.90
8463;DHT22;4268;52.506;13.462;2022-10-17T02:01:51;13.60;99.90
8463;DHT22;4268;52.506;13.462;2022-10-17T02:04:17;13.70;99.90
8463;DHT22;4268;52.506;13.462;2022-10-17T02:06:43;13.60;99.90
8463;DHT22;4268;52.506;13.462;2022-10-17T02:09:20;13.60;99.90
8463;DHT22;4268;52.506;13.462;2022-10-17T02:11:54;13.60;99.90
8463;DHT22;4268;52.506;13.462;2022-10-17T02:14:50;13.70;99.90
8463;DHT22;4268;52.506;13.462;2022-10-17T02:17:30;13.70;99.90
8463;DHT22;4268;52.506;13.462;2022-10-17T02:23:17;13.60;99.90
8463;DHT22;4268;52.506;13.462;2022-10-17T02:28:33;13.50;99.90
8463;DHT22;4268;52.506;13.462;2022-10-17T02:33:45;13.50;99.90
8463;DHT22;4268;52.506;13.462;2022-10-17T02:36:18;13.50;99.90
8463;DHT22;4268;52.506;13.462;2022-10-17T02:38:44;13.60;99.90
8463;DHT22;4268;52.506;13.462;2022-10-17T02:41:13;13.50;99.90
8463;DHT22;4268;52.506;13.462;2022-10-17T02:43:40;13.60;99.90
8463;DHT22;4268;52.506;13.462;2022-10-17T02:46:10;13.60;99.90
8463;DHT22;4268;52.506;13.462;2022-10-17T02:48:41;13.60;99.90
8463;DHT22;4268;52.506;13.462;2022-10-17T02:51:30;13.60;99.90
8463;DHT22;4268;52.506;13.462;2022-10-17T02:54:19;13.60;99.90
8463;DHT22;4268;52.506;13.462;2022-10-17T02:57:08;13.60;99.90
8463;DHT22;4268;52.506;13.462;2022-10-17T02:59:36;13.60;99.90
8463;DHT22;4268;52.506;13.462;2022-10-17T03:02:04;13.60;99.90
8463;DHT22;4268;52.506;13.462;2022-10-17T03:04:30;13.60;99.90
8463;DHT22;4268;52.506;13.462;2022-10-17T03:06:55;13.60;99.90
8463;DHT22;4268;52.506;13.462;2022-10-17T03:09:21;13.40;99.90
8463;DHT22;4268;52.506;13.462;2022-10-17T03:11:46;13.50;99.90
8463;DHT22;4268;52.506;13.462;2022-10-17T03:14:12;13.50;99.90
8463;DHT22;4268;52.506;13.462;2022-10-17T03:16:37;13.50;99.90
8463;DHT22;4268;52.506;13.462;2022-10-17T03:19:03;13.50;99.90
8463;DHT22;4268;52.506;13.462;2022-10-17T03:21:29;13.50;99.90
8463;DHT22;4268;52.506;13.462;2022-10-17T03:23:54;13.50;99.90
8463;DHT22;4268;52.506;13.462;2022-10-17T03:26:20;13.50;99.90
8463;DHT22;4268;52.506;13.462;2022-10-17T03:28:45;13.80;99.90
8463;DHT22;4268;52.506;13.462;2022-10-17T03:31:15;13.40;99.90
8463;DHT22;4268;52.506;13.462;2022-10-17T03:33:41;13.50;99.90
8463;DHT22;4268;52.506;13.462;2022-10-17T03:36:15;13.50;99.90
8463;DHT22;4268;52.506;13.462;2022-10-17T03:38:42;13.50;99.90
8463;DHT22;4268;52.506;13.462;2022-10-17T03:41:08;13.50;99.90
8463;DHT22;4268;52.506;13.462;2022-10-17T03:43:34;13.50;99.90
8463;DHT22;4268;52.506;13.462;2022-10-17T03:46:00;13.50;99.90
8463;DHT22;4268;52.506;13.462;2022-10-17T03:48:27;13.50;99.90
8463;DHT22;4268;52.506;13.462;2022-10-17T03:51:04;13.40;99.90
8463;DHT22;4268;52.506;13.462;2022-10-17T03:53:30;13.40;99.90
8463;DHT22;4268;52.506;13.462;2022-10-17T03:55:56;13.40;99.90
8463;DHT22;4268;52.506;13.462;2022-10-17T03:58:22;13.40;99.90
8463;DHT22;4268;52.506;13.462;2022-10-17T04:00:47;13.40;99.90
8463;DHT22;4268;52.506;13.462;2022-10-17T04:03:13;13.50;99.90
8463;DHT22;4268;52.506;13.462;2022-10-17T04:05:38;13.50;99.90
8463;DHT22;4268;52.506;13.462;2022-10-17T04:08:04;13.40;99.90
8463;DHT22;4268;52.506;13.462;2022-10-17T04:10:30;13.40;99.90
8463;DHT22;4268;52.506;13.462;2022-10-17T04:12:55;13.30;99.90
8463;DHT22;4268;52.506;13.462;2022-10-17T04:15:21;13.40;99.90
8463;DHT22;4268;52.506;13.462;2022-10-17T04:17:46;13.40;99.90
8463;DHT22;4268;52.506;13.462;2022-10-17T04:20:12;13.40;99.90
8463;DHT22;4268;52.506;13.462;2022-10-17T04:22:38;13.40;99.90
8463;DHT22;4268;52.506;13.462;2022-10-17T04:25:03;13.40;99.90
8463;DHT22;4268;52.506;13.462;2022-10-17T04:27:29;13.40;99.90
8463;DHT22;4268;52.506;13.462;2022-10-17T04:29:55;13.40;99.90
8463;DHT22;4268;52.506;13.462;2022-10-17T04:32:20;13.40;99.90
8463;DHT22;4268;52.506;13.462;2022-10-17T04:34:49;13.40;99.90
8463;DHT22;4268;52.506;13.462;2022-10-17T04:37:15;13.40;99.90
8463;DHT22;4268;52.506;13.462;2022-10-17T04:39:40;13.30;99.90
8463;DHT22;4268;52.506;13.462;2022-10-17T04:42:06;13.30;99.90
8463;DHT22;4268;52.506;13.462;2022-10-17T04:44:31;13.30;99.90
8463;DHT22;4268;52.506;13.462;2022-10-17T04:46:58;13.30;99.90
8463;DHT22;4268;52.506;13.462;2022-10-17T04:49:23;13.30;99.90
8463;DHT22;4268;52.506;13.462;2022-10-17T04:51:49;13.30;99.90
8463;DHT22;4268;52.506;13.462;2022-10-17T04:54:15;13.30;99.90
8463;DHT22;4268;52.506;13.462;2022-10-17T04:56:40;13.30;99.90
8463;DHT22;4268;52.506;13.462;2022-10-17T04:59:06;13.50;99.90
8463;DHT22;4268;52.506;13.462;2022-10-17T05:01:31;13.20;99.90
8463;DHT22;4268;52.506;13.462;2022-10-17T05:03:57;13.20;99.90
8463;DHT22;4268;52.506;13.462;2022-10-17T05:06:24;13.20;99.90
8463;DHT22;4268;52.506;13.462;2022-10-17T05:08:50;13.30;99.90
8463;DHT22;4268;52.506;13.462;2022-10-17T05:11:24;13.20;99.90
8463;DHT22;4268;52.506;13.462;2022-10-17T05:13:58;13.30;99.90
8463;DHT22;4268;52.506;13.462;2022-10-17T05:16:25;13.30;99.90
8463;DHT22;4268;52.506;13.462;2022-10-17T05:18:52;13.30;99.90
8463;DHT22;4268;52.506;13.462;2022-10-17T05:21:19;13.30;99.90
8463;DHT22;4268;52.506;13.462;2022-10-17T05:23:45;13.30;99.90
8463;DHT22;4268;52.506;13.462;2022-10-17T05:26:11;13.20;99.90
8463;DHT22;4268;52.506;13.462;2022-10-17T05:28:37;13.20;99.90
8463;DHT22;4268;52.506;13.462;2022-10-17T05:31:04;13.20;99.90
8463;DHT22;4268;52.506;13.462;2022-10-17T05:33:30;13.10;99.90
8463;DHT22;4268;52.506;13.462;2022-10-17T05:35:57;13.20;99.90
8463;DHT22;4268;52.506;13.462;2022-10-17T05:38:22;13.20;99.90
8463;DHT22;4268;52.506;13.462;2022-10-17T05:40:48;13.20;99.90
8463;DHT22;4268;52.506;13.462;2022-10-17T05:43:13;13.10;99.90
8463;DHT22;4268;52.506;13.462;2022-10-17T05:45:39;13.10;99.90
8463;DHT22;4268;52.506;13.462;2022-10-17T05:48:05;13.20;99.90
8463;DHT22;4268;52.506;13.462;2022-10-17T05:50:31;13.20;99.90
8463;DHT22;4268;52.506;13.462;2022-10-17T05:52:56;13.20;99.90
8463;DHT22;4268;52.506;13.462;2022-10-17T05:55:22;13.20;99.90
8463;DHT22;4268;52.506;13.462;2022-10-17T05:57:48;13.20;99.90
8463;DHT22;4268;52.506;13.462;2022-10-17T06:00:14;13.30;99.90
8463;DHT22;4268;52.506;13.462;2022-10-17T06:02:41;13.30;99.90
8463;DHT22;4268;52.506;13.462;2022-10-17T06:05:07;13.30;99.90
8463;DHT22;4268;52.506;13.462;2022-10-17T06:07:34;13.30;99.90
8463;DHT22;4268;52.506;13.462;2022-10-17T06:10:00;13.40;99.90
8463;DHT22;4268;52.506;13.462;2022-10-17T06:12:28;13.40;99.90
8463;DHT22;4268;52.506;13.462;2022-10-17T06:14:54;13.50;99.90
8463;DHT22;4268;52.506;13.462;2022-10-17T06:17:19;13.60;99.90
8463;DHT22;4268;52.506;13.462;2022-10-17T06:19:45;13.60;99.90
8463;DHT22;4268;52.506;13.462;2022-10-17T06:22:11;13.70;99.90
8463;DHT22;4268;52.506;13.462;2022-10-17T06:24:36;13.70;99.90
8463;DHT22;4268;52.506;13.462;2022-10-17T06:27:02;13.80;99.90
8463;DHT22;4268;52.506;13.462;2022-10-17T06:29:28;13.90;99.90
8463;DHT22;4268;52.506;13.462;2022-10-17T06:31:53;14.00;99.90
8463;DHT22;4268;52.506;13.462;2022-10-17T06:34:19;14.00;99.90
8463;DHT22;4268;52.506;13.462;2022-10-17T06:36:45;14.10;99.90
8463;DHT22;4268;52.506;13.462;2022-10-17T06:39:10;14.20;99.90
8463;DHT22;4268;52.506;13.462;2022-10-17T06:41:36;14.50;99.90
8463;DHT22;4268;52.506;13.462;2022-10-17T06:44:01;14.90;99.90
8463;DHT22;4268;52.506;13.462;2022-10-17T06:46:32;15.50;99.90
8463;DHT22;4268;52.506;13.462;2022-10-17T06:48:58;16.00;99.90
8463;DHT22;4268;52.506;13.462;2022-10-17T06:51:23;16.40;99.90
8463;DHT22;4268;52.506;13.462;2022-10-17T06:53:49;16.80;99.90
8463;DHT22;4268;52.506;13.462;2022-10-17T06:56:14;17.20;99.90
8463;DHT22;4268;52.506;13.462;2022-10-17T06:58:40;17.50;99.90
8463;DHT22;4268;52.506;13.462;2022-10-17T07:01:08;17.40;99.90
8463;DHT22;4268;52.506;13.462;2022-10-17T07:03:34;17.60;99.90
8463;DHT22;4268;52.506;13.462;2022-10-17T07:06:00;17.70;99.90
8463;DHT22;4268;52.506;13.462;2022-10-17T07:08:26;17.90;99.90
8463;DHT22;4268;52.506;13.462;2022-10-17T07:10:52;18.00;99.90
8463;DHT22;4268;52.506;13.462;2022-10-17T07:13:18;18.30;99.90
8463;DHT22;4268;52.506;13.462;2022-10-17T07:15:44;18.70;99.90
8463;DHT22;4268;52.506;13.462;2022-10-17T07:18:10;19.30;99.90
8463;DHT22;4268;52.506;13.462;2022-10-17T07:20:36;19.90;99.90
8463;DHT22;4268;52.506;13.462;2022-10-17T07:23:02;20.10;99.90
8463;DHT22;4268;52.506;13.462;2022-10-17T07:25:28;20.30;99.90
8463;DHT22;4268;52.506;13.462;2022-10-17T07:27:54;20.30;99.90
8463;DHT22;4268;52.506;13.462;2022-10-17T07:30:20;20.10;99.90
8463;DHT22;4268;52.506;13.462;2022-10-17T07:32:46;19.90;99.90
8463;DHT22;4268;52.506;13.462;2022-10-17T07:35:12;19.80;99.90
8463;DHT22;4268;52.506;13.462;2022-10-17T07:37:38;19.50;99.90
8463;DHT22;4268;52.506;13.462;2022-10-17T07:40:05;19.10;99.90
8463;DHT22;4268;52.506;13.462;2022-10-17T07:42:32;18.70;99.90
8463;DHT22;4268;52.506;13.462;2022-10-17T07:44:58;18.30;99.90
8463;DHT22;4268;52.506;13.462;2022-10-17T07:47:23;18.00;99.90
8463;DHT22;4268;52.506;13.462;2022-10-17T07:49:49;17.70;99.90
8463;DHT22;4268;52.506;13.462;2022-10-17T07:52:15;17.40;99.90
8463;DHT22;4268;52.506;13.462;2022-10-17T07:54:42;17.30;99.90
8463;DHT22;4268;52.506;13.462;2022-10-17T07:57:08;17.30;99.90
8463;DHT22;4268;52.506;13.462;2022-10-17T07:59:34;17.10;99.90
8463;DHT22;4268;52.506;13.462;2022-10-17T08:02:01;17.10;99.90
8463;DHT22;4268;52.506;13.462;2022-10-17T08:04:27;17.00;99.90
8463;DHT22;4268;52.506;13.462;2022-10-17T08:06:52;17.00;99.90
8463;DHT22;4268;52.506;13.462;2022-10-17T08:09:18;17.00;99.90
8463;DHT22;4268;52.506;13.462;2022-10-17T08:11:44;17.10;99.90
8463;DHT22;4268;52.506;13.462;2022-10-17T08:14:11;17.10;99.90
8463;DHT22;4268;52.506;13.462;2022-10-17T08:16:37;17.20;99.90
8463;DHT22;4268;52.506;13.462;2022-10-17T08:19:03;17.20;99.90
8463;DHT22;4268;52.506;13.462;2022-10-17T08:21:29;17.30;99.90
8463;DHT22;4268;52.506;13.462;2022-10-17T08:23:55;17.30;99.90
8463;DHT22;4268;52.506;13.462;2022-10-17T08:26:21;17.30;99.90
8463;DHT22;4268;52.506;13.462;2022-10-17T08:28:47;17.50;99.90
8463;DHT22;4268;52.506;13.462;2022-10-17T08:31:15;17.50;99.90
8463;DHT22;4268;52.506;13.462;2022-10-17T08:33:43;17.60;99.90
8463;DHT22;4268;52.506;13.462;2022-10-17T08:36:12;17.70;99.90
8463;DHT22;4268;52.506;13.462;2022-10-17T08:38:38;17.70;99.90
8463;DHT22;4268;52.506;13.462;2022-10-17T08:41:13;17.70;99.90
8463;DHT22;4268;52.506;13.462;2022-10-17T08:44:10;17.80;99.90
8463;DHT22;4268;52.506;13.462;2022-10-17T08:46:34;17.90;99.90
8463;DHT22;4268;52.506;13.462;2022-10-17T08:49:03;18.00;99.90
8463;DHT22;4268;52.506;13.462;2022-10-17T08:51:33;18.10;99.90
8463;DHT22;4268;52.506;13.462;2022-10-17T08:54:17;18.10;99.90
8463;DHT22;4268;52.506;13.462;2022-10-17T08:56:48;18.20;99.90
8463;DHT22;4268;52.506;13.462;2022-10-17T08:59:22;18.20;99.90
8463;DHT22;4268;52.506;13.462;2022-10-17T09:04:47;18.40;99.90
8463;DHT22;4268;52.506;13.462;2022-10-17T09:07:26;18.40;99.90
8463;DHT22;4268;52.506;13.462;2022-10-17T09:10:06;18.50;99.90
8463;DHT22;4268;52.506;13.462;2022-10-17T09:12:45;18.60;99.90
8463;DHT22;4268;52.506;13.462;2022-10-17T09:18:02;18.80;99.90
8463;DHT22;4268;52.506;13.462;2022-10-17T09:20:49;18.90;99.90
8463;DHT22;4268;52.506;13.462;2022-10-17T09:23:22;18.90;99.90
8463;DHT22;4268;52.506;13.462;2022-10-17T09:25:52;19.00;99.90
8463;DHT22;4268;52.506;13.462;2022-10-17T09:28:33;19.10;99.90
8463;DHT22;4268;52.506;13.462;2022-10-17T09:33:48;19.30;99.90
8463;DHT22;4268;52.506;13.462;2022-10-17T09:36:15;19.30;99.90
8463;DHT22;4268;52.506;13.462;2022-10-17T09:38:46;19.50;99.90
8463;DHT22;4268;52.506;13.462;2022-10-17T09:41:21;19.60;99.90
8463;DHT22;4268;52.506;13.462;2022-10-17T09:43:47;19.70;99.90
8463;DHT22;4268;52.506;13.462;2022-10-17T09:46:30;19.80;99.90
8463;DHT22;4268;52.506;13.462;2022-10-17T09:49:01;19.80;99.90
8463;DHT22;4268;52.506;13.462;2022-10-17T09:51:29;19.80;99.90
8463;DHT22;4268;52.506;13.462;2022-10-17T09:54:04;19.90;99.90
8463;DHT22;4268;52.506;13.462;2022-10-17T09:57:01;19.90;99.90
8463;DHT22;4268;52.506;13.462;2022-10-17T09:59:58;19.90;99.90
8463;DHT22;4268;52.506;13.462;2022-10-17T10:02:25;20.00;99.90
8463;DHT22;4268;52.506;13.462;2022-10-17T10:07:25;20.20;99.90
8463;DHT22;4268;52.506;13.462;2022-10-17T10:09:52;20.30;99.90
8463;DHT22;4268;52.506;13.462;2022-10-17T10:14:49;20.50;99.90
8463;DHT22;4268;52.506;13.462;2022-10-17T10:19:57;20.80;99.90
8463;DHT22;4268;52.506;13.462;2022-10-17T10:22:23;21.00;99.90
8463;DHT22;4268;52.506;13.462;2022-10-17T10:25:12;21.00;99.90
8463;DHT22;4268;52.506;13.462;2022-10-17T10:27:39;21.20;99.90
8463;DHT22;4268;52.506;13.462;2022-10-17T10:30:06;21.20;99.90
8463;DHT22;4268;52.506;13.462;2022-10-17T10:32:45;21.40;99.90
8463;DHT22;4268;52.506;13.462;2022-10-17T10:37:50;21.40;99.90
8463;DHT22;4268;52.506;13.462;2022-10-17T10:40:25;21.40;99.90
8463;DHT22;4268;52.506;13.462;2022-10-17T10:42:57;21.50;99.90
8463;DHT22;4268;52.506;13.462;2022-10-17T10:45:28;21.50;99.90
8463;DHT22;4268;52.506;13.462;2022-10-17T10:48:36;21.60;99.90
8463;DHT22;4268;52.506;13.462;2022-10-17T10:51:13;21.70;99.90
8463;DHT22;4268;52.506;13.462;2022-10-17T10:53:43;21.60;99.90
8463;DHT22;4268;52.506;13.462;2022-10-17T10:56:18;21.60;99.90
8463;DHT22;4268;52.506;13.462;2022-10-17T11:01:24;21.70;99.90
8463;DHT22;4268;52.506;13.462;2022-10-17T11:06:35;21.70;99.90
8463;DHT22;4268;52.506;13.462;2022-10-17T11:09:23;21.70;99.90
8463;DHT22;4268;52.506;13.462;2022-10-17T11:12:17;21.70;99.90
8463;DHT22;4268;52.506;13.462;2022-10-17T11:14:49;21.80;99.90
8463;DHT22;4268;52.506;13.462;2022-10-17T11:17:33;21.90;99.90
8463;DHT22;4268;52.506;13.462;2022-10-17T11:22:51;22.10;99.90
8463;DHT22;4268;52.506;13.462;2022-10-17T11:25:28;22.20;99.90
8463;DHT22;4268;52.506;13.462;2022-10-17T11:27:55;22.30;99.90
8463;DHT22;4268;52.506;13.462;2022-10-17T11:30:23;22.40;99.90
8463;DHT22;4268;52.506;13.462;2022-10-17T11:32:57;22.50;99.90
8463;DHT22;4268;52.506;13.462;2022-10-17T11:35:29;22.50;99.90
8463;DHT22;4268;52.506;13.462;2022-10-17T11:38:17;22.60;99.90
8463;DHT22;4268;52.506;13.462;2022-10-17T11:40:50;22.60;99.90
8463;DHT22;4268;52.506;13.462;2022-10-17T11:43:35;22.60;99.90
8463;DHT22;4268;52.506;13.462;2022-10-17T11:46:17;22.70;99.90
8463;DHT22;4268;52.506;13.462;2022-10-17T11:49:15;22.70;99.90
8463;DHT22;4268;52.506;13.462;2022-10-17T11:51:53;22.70;99.90
8463;DHT22;4268;52.506;13.462;2022-10-17T11:54:32;22.70;99.90
8463;DHT22;4268;52.506;13.462;2022-10-17T12:00:24;22.80;99.90
8463;DHT22;4268;52.506;13.462;2022-10-17T12:03:16;22.80;99.90
8463;DHT22;4268;52.506;13.462;2022-10-17T12:05:59;22.80;99.90
8463;DHT22;4268;52.506;13.462;2022-10-17T12:08:30;22.80;99.90
8463;DHT22;4268;52.506;13.462;2022-10-17T12:11:07;22.90;99.90
8463;DHT22;4268;52.506;13.462;2022-10-17T12:19:17;23.00;99.90
8463;DHT22;4268;52.506;13.462;2022-10-17T12:21:55;23.10;99.90
8463;DHT22;4268;52.506;13.462;2022-10-17T12:24:35;23.10;99.90
8463;DHT22;4268;52.506;13.462;2022-10-17T12:27:36;23.20;99.90
8463;DHT22;4268;52.506;13.462;2022-10-17T12:32:37;23.10;99.90
8463;DHT22;4268;52.506;13.462;2022-10-17T12:35:03;23.10;99.90
8463;DHT22;4268;52.506;13.462;2022-10-17T12:46:01;23.30;99.90
8463;DHT22;4268;52.506;13.462;2022-10-17T12:51:06;23.40;99.90
8463;DHT22;4268;52.506;13.462;2022-10-17T12:54:13;23.40;99.90
8463;DHT22;4268;52.506;13.462;2022-10-17T12:56:42;23.40;99.90
8463;DHT22;4268;52.506;13.462;2022-10-17T12:59:28;23.30;99.90
8463;DHT22;4268;52.506;13.462;2022-10-17T13:01:58;23.30;99.90
8463;DHT22;4268;52.506;13.462;2022-10-17T13:04:24;23.20;99.90
8463;DHT22;4268;52.506;13.462;2022-10-17T13:06:53;23.20;99.90
8463;DHT22;4268;52.506;13.462;2022-10-17T13:09:26;23.20;99.90
8463;DHT22;4268;52.506;13.462;2022-10-17T13:11:54;23.10;99.90
8463;DHT22;4268;52.506;13.462;2022-10-17T13:14:22;23.10;99.90
8463;DHT22;4268;52.506;13.462;2022-10-17T13:16:56;23.20;99.90
8463;DHT22;4268;52.506;13.462;2022-10-17T13:19:25;23.00;99.90
8463;DHT22;4268;52.506;13.462;2022-10-17T13:21:58;23.00;99.90
8463;DHT22;4268;52.506;13.462;2022-10-17T13:24:36;23.00;99.90
8463;DHT22;4268;52.506;13.462;2022-10-17T13:27:03;23.00;99.90
8463;DHT22;4268;52.506;13.462;2022-10-17T13:29:29;23.00;99.90
8463;DHT22;4268;52.506;13.462;2022-10-17T13:32:02;23.00;99.90
8463;DHT22;4268;52.506;13.462;2022-10-17T13:34:29;23.00;99.90
8463;DHT22;4268;52.506;13.462;2022-10-17T13:37:00;22.90;99.90
8463;DHT22;4268;52.506;13.462;2022-10-17T13:39:33;23.00;99.90
8463;DHT22;4268;52.506;13.462;2022-10-17T13:42:00;23.10;99.90
8463;DHT22;4268;52.506;13.462;2022-10-17T13:44:32;23.10;99.90
8463;DHT22;4268;52.506;13.462;2022-10-17T13:46:58;23.20;99.90
8463;DHT22;4268;52.506;13.462;2022-10-17T13:52:03;23.20;99.90
8463;DHT22;4268;52.506;13.462;2022-10-17T13:54:43;23.20;99.90
8463;DHT22;4268;52.506;13.462;2022-10-17T13:57:26;23.20;99.90
8463;DHT22;4268;52.506;13.462;2022-10-17T14:00:05;23.20;99.90
8463;DHT22;4268;52.506;13.462;2022-10-17T14:02:34;23.20;99.90
8463;DHT22;4268;52.506;13.462;2022-10-17T14:05:11;23.20;99.90
8463;DHT22;4268;52.506;13.462;2022-10-17T14:07:56;23.20;99.90
8463;DHT22;4268;52.506;13.462;2022-10-17T14:12:52;23.20;99.90
8463;DHT22;4268;52.506;13.462;2022-10-17T14:15:22;23.10;99.90
8463;DHT22;4268;52.506;13.462;2022-10-17T14:17:55;23.10;99.90
8463;DHT22;4268;52.506;13.462;2022-10-17T14:20:22;23.20;99.90
8463;DHT22;4268;52.506;13.462;2022-10-17T14:22:48;23.20;99.90
8463;DHT22;4268;52.506;13.462;2022-10-17T14:25:35;23.20;99.90
8463;DHT22;4268;52.506;13.462;2022-10-17T14:28:11;23.10;99.90
8463;DHT22;4268;52.506;13.462;2022-10-17T14:30:48;23.10;99.90
8463;DHT22;4268;52.506;13.462;2022-10-17T14:33:22;23.10;99.90
8463;DHT22;4268;52.506;13.462;2022-10-17T14:35:50;23.10;99.90
8463;DHT22;4268;52.506;13.462;2022-10-17T14:38:16;23.00;99.90
8463;DHT22;4268;52.506;13.462;2022-10-17T14:40:49;23.00;99.90
8463;DHT22;4268;52.506;13.462;2022-10-17T14:43:20;23.00;99.90
8463;DHT22;4268;52.506;13.462;2022-10-17T14:45:47;23.00;99.90
8463;DHT22;4268;52.506;13.462;2022-10-17T14:48:18;22.90;99.90
8463;DHT22;4268;52.506;13.462;2022-10-17T14:51:11;22.90;99.90
8463;DHT22;4268;52.506;13.462;2022-10-17T14:53:39;22.80;99.90
8463;DHT22;4268;52.506;13.462;2022-10-17T14:56:25;22.90;99.90
8463;DHT22;4268;52.506;13.462;2022-10-17T14:58:50;22.90;99.90
8463;DHT22;4268;52.506;13.462;2022-10-17T15:01:17;22.80;99.90
8463;DHT22;4268;52.506;13.462;2022-10-17T15:03:46;22.70;99.90
8463;DHT22;4268;52.506;13.462;2022-10-17T15:06:25;22.60;99.90
8463;DHT22;4268;52.506;13.462;2022-10-17T15:08:51;22.60;99.90
8463;DHT22;4268;52.506;13.462;2022-10-17T15:11:17;22.50;99.90
8463;DHT22;4268;52.506;13.462;2022-10-17T15:13:42;22.50;99.90
8463;DHT22;4268;52.506;13.462;2022-10-17T15:16:16;22.40;99.90
8463;DHT22;4268;52.506;13.462;2022-10-17T15:18:42;22.30;99.90
8463;DHT22;4268;52.506;13.462;2022-10-17T15:21:19;22.30;99.90
8463;DHT22;4268;52.506;13.462;2022-10-17T15:23:45;22.20;99.90
8463;DHT22;4268;52.506;13.462;2022-10-17T15:26:17;22.30;99.90
8463;DHT22;4268;52.506;13.462;2022-10-17T15:28:43;22.20;99.90
8463;DHT22;4268;52.506;13.462;2022-10-17T15:31:11;22.10;99.90
8463;DHT22;4268;52.506;13.462;2022-10-17T15:33:37;22.00;99.90
8463;DHT22;4268;52.506;13.462;2022-10-17T15:36:03;21.90;99.90
8463;DHT22;4268;52.506;13.462;2022-10-17T15:38:29;21.90;99.90
8463;DHT22;4268;52.506;13.462;2022-10-17T15:40:54;21.80;99.90
8463;DHT22;4268;52.506;13.462;2022-10-17T15:43:20;21.80;99.90
8463;DHT22;4268;52.506;13.462;2022-10-17T15:45:46;21.70;99.90
8463;DHT22;4268;52.506;13.462;2022-10-17T15:48:18;21.70;99.90
8463;DHT22;4268;52.506;13.462;2022-10-17T15:50:44;21.60;99.90
8463;DHT22;4268;52.506;13.462;2022-10-17T15:53:13;21.50;99.90
8463;DHT22;4268;52.506;13.462;2022-10-17T15:55:39;21.50;99.90
8463;DHT22;4268;52.506;13.462;2022-10-17T15:58:05;21.50;99.90
8463;DHT22;4268;52.506;13.462;2022-10-17T16:00:30;21.50;99.90
8463;DHT22;4268;52.506;13.462;2022-10-17T16:02:56;21.50;99.90
8463;DHT22;4268;52.506;13.462;2022-10-17T16:05:23;21.40;99.90
8463;DHT22;4268;52.506;13.462;2022-10-17T16:07:53;21.40;99.90
8463;DHT22;4268;52.506;13.462;2022-10-17T16:10:21;21.30;99.90
8463;DHT22;4268;52.506;13.462;2022-10-17T16:12:47;21.40;99.90
8463;DHT22;4268;52.506;13.462;2022-10-17T16:15:17;21.40;99.90
8463;DHT22;4268;52.506;13.462;2022-10-17T16:17:43;21.40;99.90
8463;DHT22;4268;52.506;13.462;2022-10-17T16:20:11;21.40;99.90
8463;DHT22;4268;52.506;13.462;2022-10-17T16:22:38;21.40;99.90
8463;DHT22;4268;52.506;13.462;2022-10-17T16:25:21;20.20;99.90
8463;DHT22;4268;52.506;13.462;2022-10-17T16:27:49;21.20;99.90
8463;DHT22;4268;52.506;13.462;2022-10-17T16:30:15;20.90;99.90
8463;DHT22;4268;52.506;13.462;2022-10-17T16:32:42;21.10;99.90
8463;DHT22;4268;52.506;13.462;2022-10-17T16:35:08;21.00;99.90
8463;DHT22;4268;52.506;13.462;2022-10-17T16:37:33;21.00;99.90
8463;DHT22;4268;52.506;13.462;2022-10-17T16:40:00;20.90;99.90
8463;DHT22;4268;52.506;13.462;2022-10-17T16:42:26;20.80;99.90
8463;DHT22;4268;52.506;13.462;2022-10-17T16:44:51;20.80;99.90
8463;DHT22;4268;52.506;13.462;2022-10-17T16:47:17;20.80;99.90
8463;DHT22;4268;52.506;13.462;2022-10-17T16:49:43;20.70;99.90
8463;DHT22;4268;52.506;13.462;2022-10-17T16:52:10;20.70;99.90
8463;DHT22;4268;52.506;13.462;2022-10-17T16:54:36;20.60;99.90
8463;DHT22;4268;52.506;13.462;2022-10-17T16:57:02;20.50;99.90
8463;DHT22;4268;52.506;13.462;2022-10-17T16:59:28;20.60;99.90
8463;DHT22;4268;52.506;13.462;2022-10-17T17:01:53;20.50;99.90
8463;DHT22;4268;52.506;13.462;2022-10-17T17:04:19;20.50;99.90
8463;DHT22;4268;52.506;13.462;2022-10-17T17:06:45;20.50;99.90
8463;DHT22;4268;52.506;13.462;2022-10-17T17:09:10;20.40;99.90
8463;DHT22;4268;52.506;13.462;2022-10-17T17:11:36;20.30;99.90
8463;DHT22;4268;52.506;13.462;2022-10-17T17:14:02;20.30;99.90
8463;DHT22;4268;52.506;13.462;2022-10-17T17:16:30;20.30;99.90
8463;DHT22;4268;52.506;13.462;2022-10-17T17:19:02;20.20;99.90
8463;DHT22;4268;52.506;13.462;2022-10-17T17:21:29;20.20;99.90